createdAt,value
2022-12-05T00:01:42.512Z,3.20
2022-12-05T00:04:12.553Z,3.63
2022-12-05T00:06:40.608Z,3.27
2022-12-05T00:09:09.387Z,2.73
2022-12-05T00:11:38.160Z,2.97
2022-12-05T00:14:06.506Z,3.07
2022-12-05T00:16:33.702Z,3.63
2022-12-05T00:19:02.485Z,3.00
2022-12-05T00:21:32.966Z,3.40
2022-12-05T00:24:00.912Z,4.67
2022-12-05T00:26:28.004Z,3.40
2022-12-05T00:28:56.428Z,3.37
2022-12-05T00:31:24.642Z,4.43
2022-12-05T00:33:52.221Z,3.97
2022-12-05T00:36:24.854Z,4.50
2022-12-05T00:38:52.493Z,3.77
2022-12-05T00:41:21.858Z,3.80
2022-12-05T00:43:49.072Z,3.40
2022-12-05T00:46:26.331Z,3.33
2022-12-05T00:48:54.340Z,3.00
2022-12-05T00:51:28.290Z,3.03
2022-12-05T00:53:57.939Z,3.10
2022-12-05T00:56:25.994Z,3.87
2022-12-05T00:58:54.481Z,3.30
2022-12-05T01:01:22.695Z,3.73
2022-12-05T01:03:55.185Z,3.70
2022-12-05T01:06:22.683Z,3.47
2022-12-05T01:08:49.770Z,3.20
2022-12-05T01:11:18.513Z,4.17
2022-12-05T01:13:45.701Z,3.70
2022-12-05T01:16:21.901Z,4.70
2022-12-05T01:18:49.091Z,3.53
2022-12-05T01:21:15.863Z,3.40
2022-12-05T01:23:42.489Z,3.80
2022-12-05T01:26:12.761Z,4.37
2022-12-05T01:28:40.315Z,3.80
2022-12-05T01:31:21.548Z,3.73
2022-12-05T01:33:48.941Z,3.53
2022-12-05T01:36:15.998Z,4.07
2022-12-05T01:38:43.179Z,4.07
2022-12-05T01:41:13.784Z,4.10
2022-12-05T01:44:06.423Z,4.47
2022-12-05T01:46:39.087Z,3.57
2022-12-05T01:49:09.627Z,3.93
2022-12-05T01:51:38.781Z,4.50
2022-12-05T01:54:06.513Z,3.97
2022-12-05T01:56:35.114Z,4.07
2022-12-05T01:59:03.902Z,4.20
2022-12-05T02:01:30.641Z,3.87
2022-12-05T02:03:59.211Z,4.30
2022-12-05T02:06:27.613Z,3.93
2022-12-05T02:08:54.825Z,4.40
2022-12-05T02:11:23.627Z,3.90
2022-12-05T02:14:08.623Z,4.37
2022-12-05T02:17:01.194Z,3.07
2022-12-05T02:20:03.516Z,3.40
2022-12-05T02:23:02.223Z,3.77
2022-12-05T02:25:37.549Z,4.53
2022-12-05T02:28:08.439Z,4.20
2022-12-05T02:30:41.594Z,4.40
2022-12-05T02:33:23.560Z,4.17
2022-12-05T02:35:54.230Z,3.33
2022-12-05T02:38:51.619Z,2.97
2022-12-05T02:41:39.459Z,3.97
2022-12-05T02:44:31.481Z,3.23
2022-12-05T02:47:00.187Z,3.97
2022-12-05T02:49:32.194Z,4.20
2022-12-05T02:52:02.137Z,3.63
2022-12-05T02:54:39.224Z,5.53
2022-12-05T02:57:07.487Z,4.87
2022-12-05T02:59:34.087Z,4.00
2022-12-05T03:02:00.673Z,3.60
2022-12-05T03:04:30.067Z,4.67
2022-12-05T03:07:12.328Z,3.80
2022-12-05T03:09:49.543Z,3.73
2022-12-05T03:12:20.617Z,3.50
2022-12-05T03:15:25.037Z,3.63
2022-12-05T03:17:57.630Z,4.30
2022-12-05T03:20:36.951Z,4.73
2022-12-05T03:23:09.651Z,3.67
2022-12-05T03:26:12.044Z,3.23
2022-12-05T03:28:54.510Z,3.70
2022-12-05T03:31:53.286Z,3.77
2022-12-05T03:34:43.823Z,3.73
2022-12-05T03:37:17.778Z,3.87
2022-12-05T03:39:53.285Z,4.20
2022-12-05T03:42:31.654Z,3.70
2022-12-05T03:45:03.311Z,4.00
2022-12-05T03:47:49.065Z,4.87
2022-12-05T03:50:26.783Z,4.60
2022-12-05T03:53:20.860Z,4.63
2022-12-05T03:55:57.170Z,4.37
2022-12-05T03:58:33.238Z,4.83
2022-12-05T04:01:02.691Z,3.83
2022-12-05T04:03:39.866Z,4.77
2022-12-05T04:06:31.956Z,4.60
2022-12-05T04:09:16.898Z,4.47
2022-12-05T04:11:50.919Z,4.23
2022-12-05T04:14:24.164Z,4.40
2022-12-05T04:17:05.791Z,3.67
2022-12-05T04:20:12.841Z,4.00
2022-12-05T04:22:40.210Z,4.57
2022-12-05T04:25:29.998Z,4.50
2022-12-05T04:28:21.266Z,4.50
2022-12-05T04:31:09.617Z,4.93
2022-12-05T04:33:56.937Z,4.37
2022-12-05T04:36:34.759Z,4.13
2022-12-05T04:39:16.063Z,4.67
2022-12-05T04:42:15.084Z,3.93
2022-12-05T04:44:53.069Z,4.33
2022-12-05T04:47:23.910Z,4.27
2022-12-05T04:49:54.227Z,4.63
2022-12-05T04:52:22.496Z,3.97
2022-12-05T04:54:58.966Z,4.87
2022-12-05T04:57:33.726Z,4.60
2022-12-05T05:00:00.847Z,4.30
2022-12-05T05:02:42.658Z,4.40
2022-12-05T05:05:14.107Z,5.00
2022-12-05T05:07:46.511Z,3.87
2022-12-05T05:10:16.578Z,4.00
2022-12-05T05:12:43.257Z,3.80
2022-12-05T05:15:10.166Z,3.83
2022-12-05T05:17:36.817Z,4.53
2022-12-05T05:20:23.230Z,4.43
2022-12-05T05:22:59.355Z,4.63
2022-12-05T05:25:26.388Z,4.17
2022-12-05T05:27:55.809Z,4.37
2022-12-05T05:30:24.383Z,5.00
2022-12-05T05:32:51.632Z,5.93
2022-12-05T05:35:18.307Z,7.00
2022-12-05T05:37:44.988Z,5.97
2022-12-05T05:40:13.077Z,7.53
2022-12-05T05:42:47.573Z,4.63
2022-12-05T05:45:15.506Z,4.90
2022-12-05T05:47:43.149Z,5.30
2022-12-05T05:50:12.113Z,5.10
2022-12-05T05:52:40.623Z,4.27
2022-12-05T05:55:08.780Z,4.97
2022-12-05T05:57:36.571Z,4.47
2022-12-05T06:00:06.550Z,5.73
2022-12-05T06:02:34.760Z,4.40
2022-12-05T06:05:02.191Z,5.67
2022-12-05T06:07:29.835Z,5.10
2022-12-05T06:09:57.237Z,6.13
2022-12-05T06:12:24.519Z,6.87
2022-12-05T06:14:51.666Z,5.70
2022-12-05T06:17:18.533Z,4.80
2022-12-05T06:19:46.097Z,4.90
2022-12-05T06:22:12.725Z,4.70
2022-12-05T06:24:39.451Z,5.87
2022-12-05T06:27:06.142Z,3.97
2022-12-05T06:29:34.205Z,5.63
2022-12-05T06:32:01.776Z,6.00
2022-12-05T06:34:28.602Z,5.10
2022-12-05T06:36:55.216Z,5.03
2022-12-05T06:39:21.926Z,4.27
2022-12-05T06:41:48.669Z,9.00
2022-12-05T06:44:15.350Z,8.27
2022-12-05T06:46:41.981Z,7.00
2022-12-05T06:49:10.615Z,7.60
2022-12-05T06:51:37.214Z,7.30
2022-12-05T06:54:03.972Z,10.97
2022-12-05T06:56:30.700Z,9.17
2022-12-05T06:58:57.344Z,9.77
2022-12-05T07:01:41.658Z,9.37
2022-12-05T07:04:08.482Z,7.60
2022-12-05T07:06:35.630Z,9.30
2022-12-05T07:09:04.105Z,7.70
2022-12-05T07:11:30.886Z,7.23
2022-12-05T07:13:57.718Z,17.27
2022-12-05T07:16:24.754Z,23.97
2022-12-05T07:18:51.529Z,17.93
2022-12-05T07:21:18.764Z,11.90
2022-12-05T07:23:46.676Z,12.53
2022-12-05T07:26:16.532Z,12.93
2022-12-05T07:28:43.182Z,7.43
2022-12-05T07:31:12.954Z,6.40
2022-12-05T07:33:40.250Z,6.13
2022-12-05T07:36:15.372Z,8.43
2022-12-05T07:38:42.965Z,5.67
2022-12-05T07:41:31.048Z,7.77
2022-12-05T07:43:59.412Z,11.03
2022-12-05T07:46:28.172Z,11.20
2022-12-05T07:48:55.163Z,8.50
2022-12-05T07:51:22.265Z,14.97
2022-12-05T07:53:49.108Z,13.53
2022-12-05T07:56:17.288Z,7.20
2022-12-05T07:58:48.793Z,7.40
2022-12-05T08:01:33.949Z,14.40
2022-12-05T08:04:00.704Z,14.00
2022-12-05T08:06:29.268Z,7.57
2022-12-05T08:08:56.636Z,4.97
2022-12-05T08:11:26.742Z,8.27
2022-12-05T08:13:54.442Z,8.07
2022-12-05T08:16:23.658Z,7.73
2022-12-05T08:18:58.184Z,5.80
2022-12-05T08:21:27.649Z,5.57
2022-12-05T08:23:54.984Z,5.90
2022-12-05T08:26:25.144Z,4.53
2022-12-05T08:28:58.194Z,5.13
2022-12-05T08:31:28.952Z,4.40
2022-12-05T08:33:59.265Z,5.13
2022-12-05T08:36:28.037Z,3.70
2022-12-05T08:39:00.414Z,4.53
2022-12-05T08:41:30.109Z,4.23
2022-12-05T08:43:59.258Z,4.90
2022-12-05T08:46:26.242Z,4.43
2022-12-05T08:48:52.889Z,3.80
2022-12-05T08:51:19.469Z,4.73
2022-12-05T08:53:46.294Z,4.43
2022-12-05T08:56:13.093Z,3.77
2022-12-05T08:58:41.031Z,3.33
2022-12-05T09:01:13.405Z,3.73
2022-12-05T09:03:47.401Z,4.07
2022-12-05T09:06:17.796Z,3.30
2022-12-05T09:08:45.119Z,3.90
2022-12-05T09:11:13.540Z,3.70
2022-12-05T09:13:40.389Z,4.00
2022-12-05T09:16:08.827Z,4.07
2022-12-05T09:18:35.931Z,4.33
2022-12-05T09:21:09.931Z,3.67
2022-12-05T09:23:36.696Z,4.10
2022-12-05T09:26:07.151Z,5.83
2022-12-05T09:28:35.292Z,4.23
2022-12-05T09:31:04.819Z,3.57
2022-12-05T09:33:34.153Z,4.80
2022-12-05T09:36:14.123Z,4.30
2022-12-05T09:38:41.305Z,4.50
2022-12-05T09:41:47.835Z,3.93
2022-12-05T09:44:46.548Z,3.43
2022-12-05T09:47:28.191Z,2.80
2022-12-05T09:50:03.118Z,3.53
2022-12-05T09:52:39.237Z,3.17
2022-12-05T09:55:13.165Z,3.57
2022-12-05T09:57:48.461Z,3.57
2022-12-05T10:00:15.762Z,4.40
2022-12-05T10:02:50.747Z,3.93
2022-12-05T10:05:43.220Z,4.13
2022-12-05T10:08:12.834Z,3.20
2022-12-05T10:10:55.045Z,4.90
2022-12-05T10:13:21.618Z,3.93
2022-12-05T10:15:55.684Z,4.30
2022-12-05T10:18:44.796Z,4.33
2022-12-05T10:21:49.808Z,5.20
2022-12-05T10:24:22.492Z,3.57
2022-12-05T10:26:57.689Z,4.30
2022-12-05T10:29:48.138Z,3.67
2022-12-05T10:32:30.297Z,5.17
2022-12-05T10:35:14.292Z,4.97
2022-12-05T10:37:45.715Z,5.17
2022-12-05T10:40:14.078Z,5.33
2022-12-05T10:42:40.922Z,4.30
2022-12-05T10:45:14.383Z,4.57
2022-12-05T10:47:41.034Z,3.63
2022-12-05T10:50:21.812Z,3.90
2022-12-05T10:52:49.100Z,4.17
2022-12-05T10:55:17.991Z,5.17
2022-12-05T10:57:51.943Z,5.57
2022-12-05T11:00:23.911Z,4.27
2022-12-05T11:02:51.797Z,4.83
2022-12-05T11:05:28.938Z,4.33
2022-12-05T11:07:58.487Z,4.53
2022-12-05T11:10:37.914Z,5.87
2022-12-05T11:13:16.698Z,4.90
2022-12-05T11:15:52.220Z,5.37
2022-12-05T11:18:24.902Z,6.00
2022-12-05T11:20:52.488Z,5.37
2022-12-05T11:23:25.779Z,6.63
2022-12-05T11:25:53.372Z,5.43
2022-12-05T11:28:19.889Z,5.00
2022-12-05T11:30:58.665Z,5.30
2022-12-05T11:33:27.653Z,4.63
2022-12-05T11:36:04.365Z,5.77
2022-12-05T11:38:34.881Z,4.97
2022-12-05T11:41:38.972Z,4.40
2022-12-05T11:44:32.834Z,4.30
2022-12-05T11:47:17.986Z,4.23
2022-12-05T11:50:22.862Z,4.20
2022-12-05T11:53:05.306Z,5.07
2022-12-05T11:55:57.957Z,5.43
2022-12-05T11:58:46.881Z,4.63
2022-12-05T12:01:45.228Z,4.23
2022-12-05T12:04:53.841Z,5.23
2022-12-05T12:07:32.563Z,5.87
2022-12-05T12:10:20.641Z,4.67
2022-12-05T12:13:23.087Z,4.17
2022-12-05T12:16:17.832Z,6.80
2022-12-05T12:19:10.541Z,5.90
2022-12-05T12:21:43.129Z,5.80
2022-12-05T12:24:33.831Z,4.20
2022-12-05T12:27:24.979Z,5.53
2022-12-05T12:30:08.134Z,5.10
2022-12-05T12:32:53.329Z,5.57
2022-12-05T12:35:48.386Z,4.73
2022-12-05T12:38:35.807Z,4.47
2022-12-05T12:41:34.564Z,5.23
2022-12-05T12:44:10.330Z,5.07
2022-12-05T12:46:42.980Z,4.97
2022-12-05T12:49:34.295Z,6.37
2022-12-05T12:52:17.184Z,7.10
2022-12-05T12:55:13.183Z,5.30
2022-12-05T12:57:51.646Z,5.47
2022-12-05T13:00:24.513Z,5.43
2022-12-05T13:03:03.762Z,5.07
2022-12-05T13:05:39.267Z,4.83
2022-12-05T13:08:16.257Z,4.80
2022-12-05T13:10:45.482Z,5.17
2022-12-05T13:13:25.626Z,5.50
2022-12-05T13:15:56.990Z,5.20
2022-12-05T13:18:25.704Z,5.83
2022-12-05T13:20:58.203Z,6.10
2022-12-05T13:23:28.915Z,6.00
2022-12-05T13:25:58.556Z,5.67
2022-12-05T13:28:29.950Z,6.33
2022-12-05T13:30:58.060Z,5.10
2022-12-05T13:33:27.362Z,6.00
2022-12-05T13:36:21.897Z,6.87
2022-12-05T13:39:07.053Z,7.73
2022-12-05T13:42:04.469Z,8.83
2022-12-05T13:44:56.854Z,7.93
2022-12-05T13:47:45.489Z,7.33
2022-12-05T13:50:34.297Z,7.07
2022-12-05T13:53:32.476Z,7.10
2022-12-05T13:56:24.555Z,7.57
2022-12-05T13:58:52.618Z,7.33
2022-12-05T14:01:47.719Z,8.87
2022-12-05T14:04:43.395Z,9.47
2022-12-05T14:07:11.191Z,10.63
2022-12-05T14:09:53.796Z,10.80
2022-12-05T14:12:20.379Z,13.50
2022-12-05T14:14:56.246Z,9.90
2022-12-05T14:17:44.582Z,9.33
2022-12-05T14:20:58.864Z,14.20
2022-12-05T14:23:34.182Z,14.03
2022-12-05T14:26:32.137Z,12.40
2022-12-05T14:28:58.692Z,10.57
2022-12-05T14:31:38.797Z,11.77
2022-12-05T14:34:30.222Z,13.13
2022-12-05T14:36:59.637Z,13.87
2022-12-05T14:39:52.134Z,10.60
2022-12-05T14:42:30.866Z,11.43
2022-12-05T14:45:01.008Z,15.43
2022-12-05T14:47:32.613Z,16.30
2022-12-05T14:50:23.361Z,13.87
2022-12-05T14:53:15.254Z,12.20
2022-12-05T14:55:45.541Z,12.00
2022-12-05T14:58:38.086Z,14.40
2022-12-05T15:01:13.066Z,12.93
2022-12-05T15:03:59.866Z,15.93
2022-12-05T15:06:26.961Z,20.57
2022-12-05T15:09:14.501Z,13.50
2022-12-05T15:11:43.748Z,14.80
2022-12-05T15:14:15.609Z,12.50
2022-12-05T15:16:46.335Z,11.60
2022-12-05T15:19:19.267Z,11.57
2022-12-05T15:21:58.170Z,12.30
2022-12-05T15:24:25.206Z,11.93
2022-12-05T15:26:56.828Z,14.10
2022-12-05T15:29:25.572Z,10.67
2022-12-05T15:31:56.912Z,10.90
2022-12-05T15:34:45.496Z,11.73
2022-12-05T15:37:49.864Z,9.00
2022-12-05T15:40:22.108Z,11.47
2022-12-05T15:42:57.689Z,12.27
2022-12-05T15:45:29.330Z,11.57
2022-12-05T15:48:10.506Z,11.27
2022-12-05T15:50:41.747Z,9.60
2022-12-05T15:53:15.537Z,8.70
2022-12-05T15:56:05.122Z,8.87
2022-12-05T15:58:36.855Z,8.57
2022-12-05T16:01:12.599Z,13.43
2022-12-05T16:03:54.207Z,13.67
2022-12-05T16:06:38.857Z,15.10
2022-12-05T16:09:11.527Z,11.57
2022-12-05T16:11:39.988Z,15.23
2022-12-05T16:14:08.401Z,10.43
2022-12-05T16:16:38.623Z,14.03
2022-12-05T16:19:14.692Z,20.87
2022-12-05T16:22:03.491Z,16.63
2022-12-05T16:24:32.099Z,20.00
2022-12-05T16:27:07.374Z,10.47
2022-12-05T16:29:35.093Z,11.77
2022-12-05T16:32:04.789Z,11.07
2022-12-05T16:34:33.971Z,11.43
2022-12-05T16:37:00.911Z,9.60
2022-12-05T16:39:28.488Z,12.27
2022-12-05T16:41:55.605Z,12.43
2022-12-05T16:44:31.850Z,17.00
2022-12-05T16:46:58.712Z,15.00
2022-12-05T16:49:31.638Z,15.33
2022-12-05T16:52:11.778Z,11.90
2022-12-05T16:54:38.456Z,9.20
2022-12-05T16:57:05.427Z,12.00
2022-12-05T16:59:37.518Z,12.37
2022-12-05T17:02:07.557Z,12.47
2022-12-05T17:04:34.275Z,8.87
2022-12-05T17:07:00.867Z,12.20
2022-12-05T17:09:27.587Z,10.03
2022-12-05T17:12:03.713Z,11.77
2022-12-05T17:14:30.319Z,10.80
2022-12-05T17:16:57.004Z,10.90
2022-12-05T17:19:24.487Z,9.20
2022-12-05T17:21:51.123Z,11.17
2022-12-05T17:24:19.141Z,12.70
2022-12-05T17:26:47.336Z,11.43
2022-12-05T17:29:14.048Z,9.63
2022-12-05T17:31:40.845Z,11.23
2022-12-05T17:34:16.422Z,10.27
2022-12-05T17:36:46.207Z,8.53
2022-12-05T17:39:12.877Z,8.70
2022-12-05T17:41:39.546Z,7.73
2022-12-05T17:44:07.078Z,7.17
2022-12-05T17:46:33.808Z,7.50
2022-12-05T17:49:00.524Z,7.70
2022-12-05T17:51:27.460Z,7.90
2022-12-05T17:53:54.564Z,7.57
2022-12-05T17:56:21.713Z,6.87
2022-12-05T17:58:48.465Z,6.93
2022-12-05T18:01:18.132Z,7.63
2022-12-05T18:03:44.883Z,16.83
2022-12-05T18:06:11.832Z,11.10
2022-12-05T18:08:39.971Z,16.63
2022-12-05T18:11:07.017Z,20.00
2022-12-05T18:13:34.513Z,18.73
2022-12-05T18:16:03.071Z,28.17
2022-12-05T18:18:29.872Z,11.63
2022-12-05T18:21:08.325Z,10.30
2022-12-05T18:23:36.523Z,20.73
2022-12-05T18:26:04.185Z,18.63
2022-12-05T18:28:30.823Z,14.53
2022-12-05T18:31:42.748Z,10.27
2022-12-05T18:34:09.419Z,20.60
2022-12-05T18:39:24.744Z,16.80
2022-12-05T18:41:51.349Z,18.97
2022-12-05T18:44:17.972Z,12.83
2022-12-05T18:46:44.597Z,11.20
2022-12-05T18:49:12.991Z,5.83
2022-12-05T18:51:40.403Z,7.17
2022-12-05T18:54:07.092Z,6.97
2022-12-05T18:56:35.814Z,9.13
2022-12-05T18:59:05.397Z,9.30
2022-12-05T19:01:34.632Z,10.60
2022-12-05T19:04:03.533Z,13.97
2022-12-05T19:06:32.993Z,10.93
2022-12-05T19:09:06.255Z,10.00
2022-12-05T19:11:33.197Z,8.03
2022-12-05T19:14:02.472Z,9.40
2022-12-05T19:16:30.964Z,8.27
2022-12-05T19:19:00.175Z,9.57
2022-12-05T19:21:30.266Z,9.77
2022-12-05T19:23:57.462Z,9.47
2022-12-05T19:26:25.165Z,9.80
2022-12-05T19:28:52.092Z,8.60
2022-12-05T19:31:23.999Z,8.60
2022-12-05T19:33:53.436Z,8.53
2022-12-05T19:36:28.972Z,8.37
2022-12-05T19:38:56.173Z,8.27
2022-12-05T19:41:26.449Z,11.10
2022-12-05T19:43:54.055Z,8.97
2022-12-05T19:46:25.785Z,9.87
2022-12-05T19:48:53.374Z,7.23
2022-12-05T19:51:20.141Z,9.43
2022-12-05T19:53:47.721Z,11.40
2022-12-05T19:56:20.334Z,10.50
2022-12-05T19:58:48.500Z,9.53
2022-12-05T20:01:21.497Z,9.23
2022-12-05T20:04:00.313Z,7.90
2022-12-05T20:06:33.709Z,8.57
2022-12-05T20:09:01.502Z,7.70
2022-12-05T20:11:31.779Z,11.30
2022-12-05T20:14:00.467Z,9.73
2022-12-05T20:16:28.654Z,10.53
2022-12-05T20:19:00.085Z,9.47
2022-12-05T20:21:29.817Z,9.30
2022-12-05T20:23:57.939Z,7.80
2022-12-05T20:26:30.604Z,7.17
2022-12-05T20:28:58.769Z,7.70
2022-12-05T20:31:29.760Z,6.57
2022-12-05T20:33:56.506Z,7.20
2022-12-05T20:36:26.272Z,12.57
2022-12-05T20:38:58.207Z,11.57
2022-12-05T20:41:25.615Z,11.30
2022-12-05T20:43:57.678Z,8.23
2022-12-05T20:46:25.196Z,4.97
2022-12-05T20:48:53.205Z,4.63
2022-12-05T20:51:23.118Z,4.70
2022-12-05T20:53:50.448Z,4.20
2022-12-05T20:56:20.257Z,4.70
2022-12-05T20:58:49.484Z,4.50
2022-12-05T21:01:17.970Z,5.10
2022-12-05T21:03:47.134Z,3.93
2022-12-05T21:06:19.640Z,3.53
2022-12-05T21:08:46.290Z,2.83
2022-12-05T21:11:13.878Z,3.43
2022-12-05T21:13:41.351Z,4.03
2022-12-05T21:16:11.262Z,8.93
2022-12-05T21:18:38.716Z,4.60
2022-12-05T21:21:14.628Z,4.23
2022-12-05T21:23:42.702Z,3.83
2022-12-05T21:26:13.223Z,4.67
2022-12-05T21:28:40.467Z,4.33
2022-12-05T21:31:11.253Z,4.90
2022-12-05T21:33:39.062Z,5.43
2022-12-05T21:36:07.427Z,4.30
2022-12-05T21:38:34.798Z,4.70
2022-12-05T21:41:03.238Z,4.57
2022-12-05T21:43:30.141Z,5.13
2022-12-05T21:45:57.212Z,5.17
2022-12-05T21:48:24.601Z,5.03
2022-12-05T21:50:51.885Z,4.97
2022-12-05T21:53:19.283Z,5.10
2022-12-05T21:55:46.372Z,4.83
2022-12-05T21:58:13.652Z,4.63
2022-12-05T22:00:40.614Z,4.93
2022-12-05T22:03:07.688Z,6.20
2022-12-05T22:05:34.328Z,6.07
2022-12-05T22:08:05.988Z,6.63
2022-12-05T22:10:36.229Z,7.23
2022-12-05T22:13:03.266Z,6.53
2022-12-05T22:15:30.104Z,5.90
2022-12-05T22:17:56.707Z,6.20
2022-12-05T22:20:23.614Z,6.37
2022-12-05T22:22:50.329Z,5.87
2022-12-05T22:25:16.942Z,6.50
2022-12-05T22:27:43.584Z,6.40
2022-12-05T22:30:10.478Z,6.47
2022-12-05T22:32:37.080Z,6.37
2022-12-05T22:35:04.528Z,6.27
2022-12-05T22:37:31.636Z,5.97
2022-12-05T22:39:58.740Z,5.20
2022-12-05T22:42:28.671Z,5.47
2022-12-05T22:44:55.280Z,4.90
2022-12-05T22:47:21.914Z,4.43
2022-12-05T22:49:48.537Z,5.70
2022-12-05T22:52:15.440Z,6.17
2022-12-05T22:54:42.112Z,5.23
2022-12-05T22:57:08.719Z,4.67
2022-12-05T22:59:35.291Z,5.47
2022-12-05T23:02:01.858Z,5.37
2022-12-05T23:04:28.572Z,4.83
2022-12-05T23:06:55.262Z,4.90
2022-12-05T23:09:22.016Z,5.33
2022-12-05T23:11:51.661Z,5.23
2022-12-05T23:14:18.370Z,5.23
2022-12-05T23:16:45.258Z,4.40
2022-12-05T23:19:11.872Z,4.27
2022-12-05T23:21:40.350Z,5.40
2022-12-05T23:24:09.733Z,5.07
2022-12-05T23:26:42.160Z,4.13
2022-12-05T23:29:09.271Z,3.90
2022-12-05T23:31:36.091Z,5.00
2022-12-05T23:34:04.223Z,3.90
2022-12-05T23:36:32.993Z,4.40
2022-12-05T23:39:00.024Z,5.77
2022-12-05T23:41:27.523Z,7.47
2022-12-05T23:43:55.002Z,6.63
2022-12-05T23:46:24.431Z,4.90
2022-12-05T23:48:51.697Z,4.67
2022-12-05T23:51:23.991Z,3.83
2022-12-05T23:53:56.173Z,3.70
2022-12-05T23:56:25.726Z,3.77
2022-12-05T23:58:54.092Z,3.60
